createdAt,value
2022-12-11T00:00:11.061Z,-0.27
2022-12-11T00:01:11.059Z,-0.28
2022-12-11T00:02:11.119Z,-0.30
2022-12-11T00:03:15.645Z,-0.29
2022-12-11T00:04:13.085Z,-0.28
2022-12-11T00:05:11.264Z,-0.27
2022-12-11T00:06:11.068Z,-0.31
2022-12-11T00:07:11.065Z,-0.32
2022-12-11T00:08:11.122Z,-0.32
2022-12-11T00:09:11.068Z,-0.31
2022-12-11T00:10:11.061Z,-0.31
2022-12-11T00:11:14.064Z,-0.31
2022-12-11T00:12:11.064Z,-0.33
2022-12-11T00:13:11.062Z,-0.37
2022-12-11T00:14:11.060Z,-0.38
2022-12-11T00:15:11.316Z,-0.37
2022-12-11T00:16:11.118Z,-0.36
2022-12-11T00:17:11.111Z,-0.34
2022-12-11T00:18:13.060Z,-0.31
2022-12-11T00:19:11.063Z,-0.30
2022-12-11T00:20:11.059Z,-0.28
2022-12-11T00:21:14.059Z,-0.26
2022-12-11T00:22:11.068Z,-0.25
2022-12-11T00:23:11.059Z,-0.25
2022-12-11T00:24:11.060Z,-0.27
2022-12-11T00:25:11.438Z,-0.33
2022-12-11T00:26:12.063Z,-0.35
2022-12-11T00:27:11.059Z,-0.34
2022-12-11T00:28:11.069Z,-0.32
2022-12-11T00:29:12.059Z,-0.29
2022-12-11T00:30:11.063Z,-0.26
2022-12-11T00:31:12.070Z,-0.24
2022-12-11T00:32:11.116Z,-0.26
2022-12-11T00:33:11.064Z,-0.22
2022-12-11T00:34:11.069Z,-0.18
2022-12-11T00:35:11.302Z,-0.14
2022-12-11T00:36:14.060Z,-0.16
2022-12-11T00:37:11.093Z,-0.16
2022-12-11T00:38:14.063Z,-0.15
2022-12-11T00:39:11.063Z,-0.17
2022-12-11T00:40:11.069Z,-0.20
2022-12-11T00:41:11.060Z,-0.19
2022-12-11T00:42:11.060Z,-0.16
2022-12-11T00:43:11.069Z,-0.14
2022-12-11T00:44:11.059Z,-0.13
2022-12-11T00:45:11.281Z,-0.12
2022-12-11T00:46:11.186Z,-0.06
2022-12-11T00:47:11.061Z,-0.06
2022-12-11T00:48:11.061Z,-0.05
2022-12-11T00:49:11.071Z,-0.03
2022-12-11T00:50:11.060Z,-0.02
2022-12-11T00:51:11.067Z,-0.04
2022-12-11T00:52:11.068Z,-0.01
2022-12-11T00:53:11.060Z,-0.01
2022-12-11T00:54:11.064Z,-0.02
2022-12-11T00:55:11.257Z,-0.02
2022-12-11T00:56:14.060Z,-0.01
2022-12-11T00:57:11.062Z,0.03
2022-12-11T00:58:11.064Z,0.05
2022-12-11T00:59:11.060Z,0.04
2022-12-11T01:00:13.067Z,0.04
2022-12-11T01:01:15.126Z,0.10
2022-12-11T01:02:11.062Z,0.15
2022-12-11T01:03:12.186Z,0.18
2022-12-11T01:04:11.061Z,0.23
2022-12-11T01:05:11.351Z,0.27
2022-12-11T01:06:13.062Z,0.30
2022-12-11T01:07:11.062Z,0.33
2022-12-11T01:08:11.144Z,0.35
2022-12-11T01:09:15.060Z,0.36
2022-12-11T01:10:15.087Z,0.34
2022-12-11T01:11:12.070Z,0.35
2022-12-11T01:12:11.062Z,0.35
2022-12-11T01:13:11.058Z,0.36
2022-12-11T01:14:11.069Z,0.38
2022-12-11T01:15:11.311Z,0.40
2022-12-11T01:16:11.064Z,0.43
2022-12-11T01:17:11.071Z,0.44
2022-12-11T01:18:11.060Z,0.47
2022-12-11T01:19:11.067Z,0.50
2022-12-11T01:20:11.070Z,0.49
2022-12-11T01:21:11.067Z,0.53
2022-12-11T01:22:11.064Z,0.53
2022-12-11T01:23:11.072Z,0.48
2022-12-11T01:24:11.061Z,0.41
2022-12-11T01:25:11.280Z,0.40
2022-12-11T01:26:14.072Z,0.37
2022-12-11T01:27:11.062Z,0.41
2022-12-11T01:28:11.062Z,0.46
2022-12-11T01:29:11.066Z,0.43
2022-12-11T01:30:11.068Z,0.49
2022-12-11T01:31:14.176Z,0.51
2022-12-11T01:32:11.063Z,0.48
2022-12-11T01:33:11.063Z,0.46
2022-12-11T01:34:11.059Z,0.47
2022-12-11T01:35:11.451Z,0.52
2022-12-11T01:36:20.065Z,0.52
2022-12-11T01:37:11.066Z,0.55
2022-12-11T01:38:11.070Z,0.57
2022-12-11T01:39:11.065Z,0.55
2022-12-11T01:40:12.061Z,0.56
2022-12-11T01:41:11.065Z,0.59
2022-12-11T01:42:18.063Z,0.63
2022-12-11T01:43:13.062Z,0.63
2022-12-11T01:44:19.064Z,0.58
2022-12-11T01:45:19.066Z,0.57
2022-12-11T01:46:11.131Z,0.55
2022-12-11T01:47:11.060Z,0.53
2022-12-11T01:48:13.070Z,0.54
2022-12-11T01:49:14.067Z,0.52
2022-12-11T01:50:11.061Z,0.55
2022-12-11T01:51:11.067Z,0.59
2022-12-11T01:52:18.065Z,0.60
2022-12-11T01:53:13.063Z,0.62
2022-12-11T01:54:13.062Z,0.57
2022-12-11T01:55:11.291Z,0.53
2022-12-11T01:56:11.064Z,0.57
2022-12-11T01:57:11.064Z,0.59
2022-12-11T01:58:11.064Z,0.59
2022-12-11T01:59:11.061Z,0.62
2022-12-11T02:00:11.062Z,0.65
2022-12-11T02:01:12.110Z,0.64
2022-12-11T02:02:16.068Z,0.65
2022-12-11T02:03:11.062Z,0.63
2022-12-11T02:04:11.090Z,0.57
2022-12-11T02:05:11.363Z,0.52
2022-12-11T02:06:19.072Z,0.48
2022-12-11T02:07:11.064Z,0.48
2022-12-11T02:08:11.144Z,0.44
2022-12-11T02:09:14.063Z,0.41
2022-12-11T02:10:11.064Z,0.40
2022-12-11T02:11:20.065Z,0.43
2022-12-11T02:12:22.060Z,0.47
2022-12-11T02:13:16.058Z,0.48
2022-12-11T02:14:19.061Z,0.48
2022-12-11T02:15:22.056Z,0.50
2022-12-11T02:16:22.076Z,0.46
2022-12-11T02:17:19.060Z,0.50
2022-12-11T02:18:19.060Z,0.54
2022-12-11T02:19:19.060Z,0.56
2022-12-11T02:20:22.058Z,0.59
2022-12-11T02:21:20.058Z,0.59
2022-12-11T02:22:15.062Z,0.55
2022-12-11T02:23:19.062Z,0.55
2022-12-11T02:24:19.059Z,0.52
2022-12-11T02:25:25.058Z,0.57
2022-12-11T02:26:19.067Z,0.60
2022-12-11T02:27:19.055Z,0.60
2022-12-11T02:28:19.058Z,0.61
2022-12-11T02:29:16.066Z,0.61
2022-12-11T02:30:14.060Z,0.55
2022-12-11T02:31:19.070Z,0.51
2022-12-11T02:32:21.063Z,0.53
2022-12-11T02:33:11.062Z,0.57
2022-12-11T02:34:19.057Z,0.58
2022-12-11T02:35:19.059Z,0.59
2022-12-11T02:36:11.055Z,0.57
2022-12-11T02:37:15.069Z,0.61
2022-12-11T02:38:22.061Z,0.61
2022-12-11T02:39:12.060Z,0.61
2022-12-11T02:40:12.061Z,0.68
2022-12-11T02:41:11.061Z,0.67
2022-12-11T02:42:11.060Z,0.71
2022-12-11T02:43:15.065Z,0.72
2022-12-11T02:44:13.062Z,0.73
2022-12-11T02:45:11.298Z,0.72
2022-12-11T02:46:11.106Z,0.72
2022-12-11T02:47:13.063Z,0.74
2022-12-11T02:48:11.060Z,0.74
2022-12-11T02:49:12.056Z,0.78
2022-12-11T02:50:13.067Z,0.82
2022-12-11T02:51:11.060Z,0.83
2022-12-11T02:52:13.056Z,0.85
2022-12-11T02:53:12.067Z,0.89
2022-12-11T02:54:17.061Z,0.94
2022-12-11T02:55:12.199Z,0.97
2022-12-11T02:56:13.067Z,1.00
2022-12-11T02:57:15.079Z,1.03
2022-12-11T02:58:17.057Z,1.05
2022-12-11T02:59:16.058Z,1.07
2022-12-11T03:00:11.062Z,1.08
2022-12-11T03:01:11.098Z,1.09
2022-12-11T03:02:11.098Z,1.11
2022-12-11T03:03:11.060Z,1.11
2022-12-11T03:04:11.059Z,1.11
2022-12-11T03:05:11.384Z,1.07
2022-12-11T03:06:13.060Z,1.11
2022-12-11T03:07:16.061Z,1.14
2022-12-11T03:08:11.082Z,1.13
2022-12-11T03:09:11.070Z,1.12
2022-12-11T03:10:11.059Z,1.12
2022-12-11T03:11:12.061Z,1.14
2022-12-11T03:12:11.077Z,1.15
2022-12-11T03:13:11.058Z,1.18
2022-12-11T03:14:11.060Z,1.16
2022-12-11T03:15:14.061Z,1.15
2022-12-11T03:16:19.120Z,1.14
2022-12-11T03:17:18.060Z,1.09
2022-12-11T03:18:19.075Z,1.05
2022-12-11T03:19:19.060Z,1.06
2022-12-11T03:20:19.061Z,1.10
2022-12-11T03:21:18.062Z,1.12
2022-12-11T03:22:21.063Z,1.14
2022-12-11T03:23:19.071Z,1.16
2022-12-11T03:24:16.061Z,1.16
2022-12-11T03:25:20.063Z,1.15
2022-12-11T03:26:15.063Z,1.12
2022-12-11T03:27:19.072Z,1.12
2022-12-11T03:28:17.060Z,1.09
2022-12-11T03:29:19.059Z,1.09
2022-12-11T03:30:15.061Z,1.08
2022-12-11T03:31:13.130Z,1.06
2022-12-11T03:32:19.060Z,1.05
2022-12-11T03:33:19.069Z,1.07
2022-12-11T03:34:19.061Z,1.06
2022-12-11T03:35:18.085Z,1.05
2022-12-11T03:36:13.060Z,1.06
2022-12-11T03:37:11.060Z,1.08
2022-12-11T03:38:12.065Z,1.14
2022-12-11T03:39:17.063Z,1.18
2022-12-11T03:40:17.057Z,1.21
2022-12-11T03:41:11.061Z,1.23
2022-12-11T03:42:11.062Z,1.20
2022-12-11T03:43:11.059Z,1.19
2022-12-11T03:44:11.088Z,1.23
2022-12-11T03:45:11.480Z,1.23
2022-12-11T03:46:11.087Z,1.26
2022-12-11T03:47:11.063Z,1.31
2022-12-11T03:48:11.062Z,1.33
2022-12-11T03:49:19.058Z,1.33
2022-12-11T03:50:11.060Z,1.33
2022-12-11T03:51:11.061Z,1.34
2022-12-11T03:52:11.060Z,1.35
2022-12-11T03:53:11.064Z,1.36
2022-12-11T03:54:11.063Z,1.37
2022-12-11T03:55:11.433Z,1.37
2022-12-11T03:56:11.095Z,1.38
2022-12-11T03:57:12.062Z,1.41
2022-12-11T03:58:11.061Z,1.43
2022-12-11T03:59:11.064Z,1.46
2022-12-11T04:00:12.064Z,1.46
2022-12-11T04:01:11.061Z,1.43
2022-12-11T04:02:14.064Z,1.43
2022-12-11T04:03:15.146Z,1.45
2022-12-11T04:04:11.095Z,1.42
2022-12-11T04:05:11.318Z,1.39
2022-12-11T04:06:11.063Z,1.33
2022-12-11T04:07:11.089Z,1.27
2022-12-11T04:08:11.191Z,1.26
2022-12-11T04:09:11.066Z,1.25
2022-12-11T04:10:11.063Z,1.24
2022-12-11T04:11:15.067Z,1.21
2022-12-11T04:12:11.064Z,1.17
2022-12-11T04:13:11.071Z,1.19
2022-12-11T04:14:15.064Z,1.19
2022-12-11T04:15:11.231Z,1.23
2022-12-11T04:16:11.148Z,1.24
2022-12-11T04:17:11.070Z,1.22
2022-12-11T04:18:15.064Z,1.23
2022-12-11T04:19:15.060Z,1.25
2022-12-11T04:20:15.058Z,1.28
2022-12-11T04:21:15.061Z,1.28
2022-12-11T04:22:15.071Z,1.27
2022-12-11T04:23:15.064Z,1.27
2022-12-11T04:24:15.062Z,1.28
2022-12-11T04:25:11.372Z,1.29
2022-12-11T04:26:15.063Z,1.32
2022-12-11T04:27:11.061Z,1.31
2022-12-11T04:28:11.065Z,1.29
2022-12-11T04:29:11.070Z,1.28
2022-12-11T04:30:12.065Z,1.23
2022-12-11T04:31:17.190Z,1.21
2022-12-11T04:32:11.065Z,1.18
2022-12-11T04:33:11.062Z,1.16
2022-12-11T04:34:11.063Z,1.16
2022-12-11T04:35:11.306Z,1.20
2022-12-11T04:36:11.063Z,1.16
2022-12-11T04:37:11.066Z,1.15
2022-12-11T04:38:11.063Z,1.14
2022-12-11T04:39:11.063Z,1.13
2022-12-11T04:40:11.058Z,1.13
2022-12-11T04:41:11.066Z,1.17
2022-12-11T04:42:11.062Z,1.18
2022-12-11T04:43:11.068Z,1.20
2022-12-11T04:44:11.064Z,1.17
2022-12-11T04:45:11.307Z,1.15
2022-12-11T04:46:17.143Z,1.13
2022-12-11T04:47:11.062Z,1.13
2022-12-11T04:48:11.065Z,1.13
2022-12-11T04:49:11.063Z,1.14
2022-12-11T04:50:11.061Z,1.17
2022-12-11T04:51:11.064Z,1.18
2022-12-11T04:52:11.062Z,1.17
2022-12-11T04:53:11.061Z,1.17
2022-12-11T04:54:11.064Z,1.17
2022-12-11T04:55:11.304Z,1.19
2022-12-11T04:56:11.064Z,1.20
2022-12-11T04:57:11.065Z,1.21
2022-12-11T04:58:11.062Z,1.24
2022-12-11T04:59:11.065Z,1.28
2022-12-11T05:00:11.068Z,1.29
2022-12-11T05:01:11.141Z,1.32
2022-12-11T05:02:11.071Z,1.33
2022-12-11T05:03:11.099Z,1.36
2022-12-11T05:04:11.062Z,1.38
2022-12-11T05:05:11.324Z,1.41
2022-12-11T05:06:11.064Z,1.41
2022-12-11T05:07:11.060Z,1.39
2022-12-11T05:08:11.079Z,1.39
2022-12-11T05:09:13.062Z,1.41
2022-12-11T05:10:11.062Z,1.39
2022-12-11T05:11:14.066Z,1.41
2022-12-11T05:12:11.060Z,1.43
2022-12-11T05:13:11.055Z,1.41
2022-12-11T05:14:11.058Z,1.42
2022-12-11T05:15:11.415Z,1.40
2022-12-11T05:16:11.106Z,1.43
2022-12-11T05:17:11.058Z,1.38
2022-12-11T05:18:11.057Z,1.37
2022-12-11T05:19:11.056Z,1.39
2022-12-11T05:20:11.059Z,1.37
2022-12-11T05:21:13.061Z,1.38
2022-12-11T05:22:11.055Z,1.40
2022-12-11T05:23:11.056Z,1.42
2022-12-11T05:24:11.058Z,1.45
2022-12-11T05:25:11.328Z,1.48
2022-12-11T05:26:12.057Z,1.49
2022-12-11T05:27:11.057Z,1.51
2022-12-11T05:28:11.056Z,1.53
2022-12-11T05:29:11.061Z,1.55
2022-12-11T05:30:11.058Z,1.57
2022-12-11T05:31:14.156Z,1.57
2022-12-11T05:32:11.060Z,1.59
2022-12-11T05:33:11.058Z,1.60
2022-12-11T05:34:11.053Z,1.60
2022-12-11T05:35:11.380Z,1.61
2022-12-11T05:36:14.055Z,1.59
2022-12-11T05:37:11.055Z,1.55
2022-12-11T05:38:11.065Z,1.47
2022-12-11T05:39:11.057Z,1.45
2022-12-11T05:40:13.070Z,1.43
2022-12-11T05:41:12.065Z,1.42
2022-12-11T05:42:11.059Z,1.40
2022-12-11T05:43:11.053Z,1.37
2022-12-11T05:44:14.068Z,1.37
2022-12-11T05:45:11.364Z,1.36
2022-12-11T05:46:14.158Z,1.39
2022-12-11T05:47:11.057Z,1.41
2022-12-11T05:48:11.093Z,1.45
2022-12-11T05:49:12.059Z,1.47
2022-12-11T05:50:11.059Z,1.48
2022-12-11T05:51:11.058Z,1.51
2022-12-11T05:52:11.059Z,1.51
2022-12-11T05:53:11.057Z,1.50
2022-12-11T05:54:11.058Z,1.51
2022-12-11T05:55:11.399Z,1.50
2022-12-11T05:56:15.066Z,1.41
2022-12-11T05:57:11.058Z,1.41
2022-12-11T05:58:11.056Z,1.39
2022-12-11T05:59:11.066Z,1.39
2022-12-11T06:00:11.057Z,1.39
2022-12-11T06:01:11.057Z,1.41
2022-12-11T06:02:11.188Z,1.43
2022-12-11T06:03:11.119Z,1.45
2022-12-11T06:04:11.058Z,1.46
2022-12-11T06:05:11.363Z,1.44
2022-12-11T06:06:11.057Z,1.43
2022-12-11T06:07:11.058Z,1.43
2022-12-11T06:08:11.106Z,1.44
2022-12-11T06:09:14.060Z,1.45
2022-12-11T06:10:11.057Z,1.46
2022-12-11T06:11:11.060Z,1.48
2022-12-11T06:12:11.057Z,1.47
2022-12-11T06:13:11.060Z,1.42
2022-12-11T06:14:11.060Z,1.42
2022-12-11T06:15:11.368Z,1.40
2022-12-11T06:16:11.112Z,1.39
2022-12-11T06:17:11.059Z,1.41
2022-12-11T06:18:11.057Z,1.39
2022-12-11T06:19:14.060Z,1.37
2022-12-11T06:20:11.081Z,1.38
2022-12-11T06:21:14.058Z,1.39
2022-12-11T06:22:11.057Z,1.36
2022-12-11T06:23:11.066Z,1.29
2022-12-11T06:24:12.058Z,1.33
2022-12-11T06:25:11.397Z,1.37
2022-12-11T06:26:11.068Z,1.37
2022-12-11T06:27:11.058Z,1.35
2022-12-11T06:28:11.059Z,1.34
2022-12-11T06:29:13.012Z,1.35
2022-12-11T06:30:11.060Z,1.35
2022-12-11T06:31:11.091Z,1.30
2022-12-11T06:32:11.063Z,1.25
2022-12-11T06:33:11.057Z,1.22
2022-12-11T06:34:12.060Z,1.24
2022-12-11T06:35:11.263Z,1.27
2022-12-11T06:36:11.058Z,1.31
2022-12-11T06:37:11.060Z,1.31
2022-12-11T06:38:11.066Z,1.34
2022-12-11T06:39:11.058Z,1.37
2022-12-11T06:40:11.058Z,1.38
2022-12-11T06:41:11.060Z,1.39
2022-12-11T06:42:11.058Z,1.38
2022-12-11T06:43:11.059Z,1.37
2022-12-11T06:44:11.069Z,1.40
2022-12-11T06:45:11.210Z,1.36
2022-12-11T06:46:15.176Z,1.27
2022-12-11T06:47:11.062Z,1.27
2022-12-11T06:48:11.058Z,1.26
2022-12-11T06:49:11.059Z,1.28
2022-12-11T06:50:11.069Z,1.29
2022-12-11T06:51:11.059Z,1.26
2022-12-11T06:52:15.096Z,1.24
2022-12-11T06:53:13.805Z,1.27
2022-12-11T06:54:11.059Z,1.30
2022-12-11T06:55:11.372Z,1.34
2022-12-11T06:56:11.061Z,1.34
2022-12-11T06:57:11.059Z,1.32
2022-12-11T06:58:11.059Z,1.28
2022-12-11T06:59:12.060Z,1.24
2022-12-11T07:00:11.063Z,1.21
2022-12-11T07:01:19.138Z,1.19
2022-12-11T07:02:16.100Z,1.16
2022-12-11T07:03:11.063Z,1.12
2022-12-11T07:04:11.068Z,1.09
2022-12-11T07:05:11.455Z,1.06
2022-12-11T07:06:11.062Z,0.95
2022-12-11T07:07:11.062Z,0.96
2022-12-11T07:08:11.101Z,0.95
2022-12-11T07:09:11.062Z,0.95
2022-12-11T07:10:11.060Z,0.93
2022-12-11T07:11:11.062Z,0.91
2022-12-11T07:12:11.062Z,0.91
2022-12-11T07:13:11.058Z,0.91
2022-12-11T07:14:11.068Z,0.90
2022-12-11T07:15:11.346Z,0.91
2022-12-11T07:16:14.099Z,0.88
2022-12-11T07:17:11.063Z,0.90
2022-12-11T07:18:11.060Z,0.91
2022-12-11T07:19:11.060Z,0.91
2022-12-11T07:20:11.063Z,0.89
2022-12-11T07:21:11.062Z,0.88
2022-12-11T07:22:11.057Z,0.91
2022-12-11T07:23:11.062Z,0.92
2022-12-11T07:24:11.062Z,0.93
2022-12-11T07:25:11.314Z,0.93
2022-12-11T07:26:12.066Z,0.93
2022-12-11T07:27:11.061Z,0.93
2022-12-11T07:28:15.193Z,0.90
2022-12-11T07:29:13.050Z,0.91
2022-12-11T07:30:11.063Z,0.89
2022-12-11T07:31:11.062Z,0.87
2022-12-11T07:32:11.176Z,0.86
2022-12-11T07:33:11.061Z,0.87
2022-12-11T07:34:13.062Z,0.84
2022-12-11T07:35:11.458Z,0.83
2022-12-11T07:36:11.066Z,0.78
2022-12-11T07:37:11.062Z,0.73
2022-12-11T07:38:11.061Z,0.74
2022-12-11T07:39:13.065Z,0.71
2022-12-11T07:40:11.063Z,0.74
2022-12-11T07:41:11.062Z,0.75
2022-12-11T07:42:11.069Z,0.78
2022-12-11T07:43:11.060Z,0.81
2022-12-11T07:44:11.064Z,0.83
2022-12-11T07:45:11.319Z,0.86
2022-12-11T07:46:12.142Z,0.84
2022-12-11T07:47:11.062Z,0.85
2022-12-11T07:48:11.069Z,0.84
2022-12-11T07:49:11.074Z,0.87
2022-12-11T07:50:11.081Z,0.88
2022-12-11T07:51:14.069Z,0.87
2022-12-11T07:52:11.063Z,0.90
2022-12-11T07:53:11.060Z,0.91
2022-12-11T07:54:12.075Z,0.93
2022-12-11T07:55:11.354Z,0.94
2022-12-11T07:56:11.058Z,0.92
2022-12-11T07:57:14.063Z,0.93
2022-12-11T07:58:11.061Z,0.91
2022-12-11T07:59:11.062Z,0.89
2022-12-11T08:00:11.060Z,0.86
2022-12-11T08:01:19.120Z,0.83
2022-12-11T08:02:12.163Z,0.81
2022-12-11T08:03:11.064Z,0.82
2022-12-11T08:04:11.068Z,0.79
2022-12-11T08:05:11.354Z,0.81
2022-12-11T08:06:11.058Z,0.81
2022-12-11T08:07:11.069Z,0.80
2022-12-11T08:08:11.119Z,0.79
2022-12-11T08:09:15.975Z,0.82
2022-12-11T08:10:13.792Z,0.84
2022-12-11T08:11:12.079Z,0.86
2022-12-11T08:12:11.055Z,0.86
2022-12-11T08:13:11.056Z,0.90
2022-12-11T08:14:11.057Z,0.89
2022-12-11T08:15:11.371Z,0.89
2022-12-11T08:16:11.056Z,0.88
2022-12-11T08:17:11.057Z,0.90
2022-12-11T08:18:11.056Z,0.91
2022-12-11T08:19:11.060Z,0.88
2022-12-11T08:20:11.057Z,0.89
2022-12-11T08:21:14.054Z,0.88
2022-12-11T08:22:11.056Z,0.85
2022-12-11T08:23:11.058Z,0.86
2022-12-11T08:24:11.057Z,0.88
2022-12-11T08:25:11.323Z,0.86
2022-12-11T08:26:12.060Z,0.86
2022-12-11T08:27:11.057Z,0.87
2022-12-11T08:28:11.056Z,0.89
2022-12-11T08:29:11.059Z,0.87
2022-12-11T08:30:11.054Z,0.91
2022-12-11T08:31:11.114Z,0.92
2022-12-11T08:32:12.585Z,0.92
2022-12-11T08:33:11.053Z,0.93
2022-12-11T08:34:11.065Z,0.94
2022-12-11T08:35:11.323Z,0.93
2022-12-11T08:36:11.058Z,0.93
2022-12-11T08:37:11.065Z,0.95
2022-12-11T08:38:11.057Z,0.95
2022-12-11T08:39:11.059Z,0.94
2022-12-11T08:40:11.065Z,0.92
2022-12-11T08:41:21.057Z,0.90
2022-12-11T08:42:11.058Z,0.92
2022-12-11T08:43:11.057Z,0.94
2022-12-11T08:44:16.728Z,0.94
2022-12-11T08:45:11.315Z,0.93
2022-12-11T08:46:11.131Z,0.88
2022-12-11T08:47:11.060Z,0.85
2022-12-11T08:48:11.057Z,0.90
2022-12-11T08:49:11.061Z,0.91
2022-12-11T08:50:11.064Z,0.93
2022-12-11T08:51:12.061Z,0.94
2022-12-11T08:52:11.059Z,0.94
2022-12-11T08:53:11.058Z,0.97
2022-12-11T08:54:11.057Z,0.98
2022-12-11T08:55:11.275Z,1.00
2022-12-11T08:56:14.059Z,1.01
2022-12-11T08:57:11.057Z,1.01
2022-12-11T08:58:11.059Z,1.02
2022-12-11T08:59:11.062Z,1.03
2022-12-11T09:00:11.058Z,1.00
2022-12-11T09:01:15.117Z,1.00
2022-12-11T09:02:12.072Z,0.97
2022-12-11T09:03:12.948Z,0.99
2022-12-11T09:04:11.060Z,0.99
2022-12-11T09:05:11.303Z,1.02
2022-12-11T09:06:12.059Z,1.02
2022-12-11T09:07:11.054Z,0.97
2022-12-11T09:08:11.123Z,0.94
2022-12-11T09:09:11.056Z,0.94
2022-12-11T09:10:11.060Z,0.95
2022-12-11T09:11:14.066Z,0.97
2022-12-11T09:12:11.058Z,0.99
2022-12-11T09:13:11.061Z,1.01
2022-12-11T09:14:11.067Z,1.05
2022-12-11T09:15:11.195Z,1.09
2022-12-11T09:16:11.099Z,1.10
2022-12-11T09:17:11.066Z,1.09
2022-12-11T09:18:11.058Z,1.14
2022-12-11T09:19:12.057Z,1.12
2022-12-11T09:20:11.059Z,1.10
2022-12-11T09:21:14.058Z,1.09
2022-12-11T09:22:11.059Z,1.12
2022-12-11T09:23:11.061Z,1.11
2022-12-11T09:24:11.061Z,1.14
2022-12-11T09:25:11.274Z,1.18
2022-12-11T09:26:12.059Z,1.13
2022-12-11T09:27:11.058Z,1.10
2022-12-11T09:28:11.057Z,1.04
2022-12-11T09:29:11.060Z,1.11
2022-12-11T09:30:11.056Z,1.16
2022-12-11T09:31:15.117Z,1.20
2022-12-11T09:32:11.067Z,1.19
2022-12-11T09:33:11.058Z,1.21
2022-12-11T09:34:11.060Z,1.25
2022-12-11T09:35:11.338Z,1.25
2022-12-11T09:36:11.060Z,1.27
2022-12-11T09:37:11.061Z,1.18
2022-12-11T09:38:11.066Z,1.07
2022-12-11T09:39:11.061Z,1.09
2022-12-11T09:40:11.062Z,1.13
2022-12-11T09:41:19.072Z,1.13
2022-12-11T09:42:18.061Z,1.15
2022-12-11T09:43:22.069Z,1.07
2022-12-11T09:44:22.060Z,1.09
2022-12-11T09:45:15.058Z,1.15
2022-12-11T09:46:14.104Z,1.14
2022-12-11T09:47:19.059Z,1.19
2022-12-11T09:48:11.060Z,1.17
2022-12-11T09:49:22.062Z,1.16
2022-12-11T09:50:22.073Z,1.17
2022-12-11T09:51:18.062Z,1.21
2022-12-11T09:52:18.077Z,1.22
2022-12-11T09:53:19.064Z,1.23
2022-12-11T09:54:13.061Z,1.18
2022-12-11T09:55:19.062Z,1.21
2022-12-11T09:56:22.060Z,1.26
2022-12-11T09:57:19.061Z,1.21
2022-12-11T09:58:19.064Z,1.24
2022-12-11T09:59:19.063Z,1.27
2022-12-11T10:00:22.062Z,1.29
2022-12-11T10:01:22.102Z,1.34
2022-12-11T10:02:19.128Z,1.33
2022-12-11T10:03:22.062Z,1.35
2022-12-11T10:04:20.068Z,1.37
2022-12-11T10:05:19.061Z,1.39
2022-12-11T10:06:19.059Z,1.41
2022-12-11T10:07:19.057Z,1.39
2022-12-11T10:08:19.142Z,1.39
2022-12-11T10:09:21.068Z,1.42
2022-12-11T10:10:19.064Z,1.40
2022-12-11T10:11:22.059Z,1.40
2022-12-11T10:12:22.062Z,1.42
2022-12-11T10:13:22.064Z,1.45
2022-12-11T10:14:19.060Z,1.44
2022-12-11T10:15:22.068Z,1.47
2022-12-11T10:16:19.165Z,1.43
2022-12-11T10:17:21.066Z,1.39
2022-12-11T10:18:15.066Z,1.42
2022-12-11T10:19:19.063Z,1.42
2022-12-11T10:20:19.066Z,1.42
2022-12-11T10:21:11.069Z,1.41
2022-12-11T10:22:19.059Z,1.40
2022-12-11T10:23:19.063Z,1.40
2022-12-11T10:24:48.928Z,1.38
2022-12-11T10:25:21.076Z,1.37
2022-12-11T10:26:17.063Z,1.37
2022-12-11T10:27:18.060Z,1.34
2022-12-11T10:28:14.063Z,1.31
2022-12-11T10:29:15.069Z,1.33
2022-12-11T10:30:19.062Z,1.33
2022-12-11T10:31:19.191Z,1.36
2022-12-11T10:32:19.063Z,1.37
2022-12-11T10:33:25.068Z,1.37
2022-12-11T10:34:13.075Z,1.38
2022-12-11T10:35:19.060Z,1.39
2022-12-11T10:36:15.059Z,1.37
2022-12-11T10:37:11.071Z,1.37
2022-12-11T10:38:20.087Z,1.34
2022-12-11T10:39:15.061Z,1.35
2022-12-11T10:40:11.058Z,1.34
2022-12-11T10:41:21.076Z,1.35
2022-12-11T10:42:18.073Z,1.29
2022-12-11T10:43:11.062Z,1.30
2022-12-11T10:44:19.064Z,1.27
2022-12-11T10:45:15.071Z,1.27
2022-12-11T10:46:19.172Z,1.31
2022-12-11T10:47:14.062Z,1.32
2022-12-11T10:48:13.062Z,1.30
2022-12-11T10:49:19.061Z,1.29
2022-12-11T10:50:19.061Z,1.30
2022-12-11T10:51:11.059Z,1.27
2022-12-11T10:52:24.068Z,1.29
2022-12-11T10:53:19.064Z,1.31
2022-12-11T10:54:22.061Z,1.33
2022-12-11T10:55:19.063Z,1.33
2022-12-11T10:56:11.064Z,1.29
2022-12-11T10:57:13.069Z,1.31
2022-12-11T10:58:19.063Z,1.34
2022-12-11T10:59:24.133Z,1.33
2022-12-11T11:00:19.066Z,1.28
2022-12-11T11:01:15.188Z,1.30
2022-12-11T11:02:19.096Z,1.30
2022-12-11T11:03:19.061Z,1.28
2022-12-11T11:04:15.060Z,1.29
2022-12-11T11:05:16.064Z,1.33
2022-12-11T11:06:18.068Z,1.34
2022-12-11T11:07:21.063Z,1.37
2022-12-11T11:08:15.181Z,1.32
2022-12-11T11:09:19.065Z,1.31
2022-12-11T11:10:17.076Z,1.35
2022-12-11T11:11:19.063Z,1.36
2022-12-11T11:12:19.053Z,1.39
2022-12-11T11:13:15.057Z,1.41
2022-12-11T11:14:15.065Z,1.39
2022-12-11T11:15:14.189Z,1.41
2022-12-11T11:16:14.141Z,1.43
2022-12-11T11:17:15.059Z,1.46
2022-12-11T11:18:19.058Z,1.45
2022-12-11T11:19:19.057Z,1.49
2022-12-11T11:20:14.065Z,1.51
2022-12-11T11:21:18.066Z,1.53
2022-12-11T11:22:16.061Z,1.53
2022-12-11T11:23:14.056Z,1.55
2022-12-11T11:24:19.057Z,1.57
2022-12-11T11:25:19.070Z,1.54
2022-12-11T11:26:11.057Z,1.51
2022-12-11T11:27:25.055Z,1.47
2022-12-11T11:28:19.059Z,1.41
2022-12-11T11:29:19.060Z,1.40
2022-12-11T11:30:19.060Z,1.38
2022-12-11T11:31:11.087Z,1.36
2022-12-11T11:32:17.058Z,1.31
2022-12-11T11:33:18.056Z,1.33
2022-12-11T11:34:15.060Z,1.30
2022-12-11T11:35:19.056Z,1.34
2022-12-11T11:36:19.059Z,1.36
2022-12-11T11:37:19.063Z,1.37
2022-12-11T11:38:18.059Z,1.39
2022-12-11T11:39:22.057Z,1.40
2022-12-11T11:40:21.061Z,1.43
2022-12-11T11:41:20.060Z,1.46
2022-12-11T11:42:18.060Z,1.52
2022-12-11T11:43:20.067Z,1.53
2022-12-11T11:44:14.078Z,1.41
2022-12-11T11:45:17.054Z,1.41
2022-12-11T11:46:19.127Z,1.42
2022-12-11T11:47:20.058Z,1.40
2022-12-11T11:48:19.056Z,1.41
2022-12-11T11:49:19.056Z,1.42
2022-12-11T11:50:16.060Z,1.48
2022-12-11T11:51:19.061Z,1.52
2022-12-11T11:52:22.062Z,1.52
2022-12-11T11:53:21.056Z,1.53
2022-12-11T11:54:22.056Z,1.54
2022-12-11T11:55:22.022Z,1.54
2022-12-11T11:56:18.068Z,1.53
2022-12-11T11:57:22.057Z,1.52
2022-12-11T11:58:16.075Z,1.55
2022-12-11T11:59:19.060Z,1.54
2022-12-11T12:00:20.061Z,1.55
2022-12-11T12:01:18.068Z,1.54
2022-12-11T12:02:15.060Z,1.58
2022-12-11T12:03:16.058Z,1.57
2022-12-11T12:04:11.058Z,1.57
2022-12-11T12:05:15.059Z,1.59
2022-12-11T12:06:19.061Z,1.59
2022-12-11T12:07:19.058Z,1.58
2022-12-11T12:08:22.110Z,1.59
2022-12-11T12:09:19.117Z,1.59
2022-12-11T12:10:22.057Z,1.58
2022-12-11T12:11:19.060Z,1.55
2022-12-11T12:12:26.608Z,1.53
2022-12-11T12:13:48.577Z,1.54
2022-12-11T12:14:50.985Z,1.51
2022-12-11T12:15:23.029Z,1.50
2022-12-11T12:16:51.084Z,1.53
2022-12-11T12:17:21.109Z,1.52
2022-12-11T12:18:19.057Z,1.50
2022-12-11T12:19:22.059Z,1.50
2022-12-11T12:20:20.059Z,1.47
2022-12-11T12:21:22.066Z,1.46
2022-12-11T12:22:19.067Z,1.48
2022-12-11T12:23:19.059Z,1.48
2022-12-11T12:24:19.058Z,1.49
2022-12-11T12:25:19.058Z,1.51
2022-12-11T12:26:20.061Z,1.52
2022-12-11T12:27:50.923Z,1.54
2022-12-11T12:28:21.037Z,1.58
2022-12-11T12:29:19.061Z,1.55
2022-12-11T12:30:21.825Z,1.53
2022-12-11T12:31:21.073Z,1.51
2022-12-11T12:32:19.067Z,1.56
2022-12-11T12:33:19.060Z,1.56
2022-12-11T12:34:19.062Z,1.59
2022-12-11T12:35:19.056Z,1.59
2022-12-11T12:36:20.059Z,1.62
2022-12-11T12:37:18.066Z,1.62
2022-12-11T12:38:22.061Z,1.63
2022-12-11T12:39:19.059Z,1.59
2022-12-11T12:40:19.056Z,1.62
2022-12-11T12:41:20.059Z,1.61
2022-12-11T12:42:22.070Z,1.56
2022-12-11T12:43:22.059Z,1.58
2022-12-11T12:44:18.161Z,1.59
2022-12-11T12:45:19.058Z,1.64
2022-12-11T12:46:19.088Z,1.63
2022-12-11T12:47:14.067Z,1.63
2022-12-11T12:48:11.063Z,1.59
2022-12-11T12:49:22.056Z,1.61
2022-12-11T12:50:19.058Z,1.61
2022-12-11T12:51:15.061Z,1.60
2022-12-11T12:52:19.062Z,1.53
2022-12-11T12:53:16.059Z,1.55
2022-12-11T12:54:15.063Z,1.61
2022-12-11T12:55:23.127Z,1.55
2022-12-11T12:56:12.067Z,1.56
2022-12-11T12:57:11.061Z,1.52
2022-12-11T12:58:19.078Z,1.56
2022-12-11T12:59:19.072Z,1.56
2022-12-11T13:00:13.227Z,1.60
2022-12-11T13:01:19.084Z,1.62
2022-12-11T13:02:15.133Z,1.60
2022-12-11T13:03:18.061Z,1.61
2022-12-11T13:04:47.127Z,1.62
2022-12-11T13:05:21.043Z,1.64
2022-12-11T13:06:11.062Z,1.62
2022-12-11T13:07:18.066Z,1.65
2022-12-11T13:08:11.104Z,1.70
2022-12-11T13:09:19.060Z,1.70
2022-12-11T13:10:19.060Z,1.67
2022-12-11T13:11:15.068Z,1.69
2022-12-11T13:12:17.062Z,1.73
2022-12-11T13:13:19.057Z,1.76
2022-12-11T13:14:19.060Z,1.75
2022-12-11T13:15:19.073Z,1.70
2022-12-11T13:16:22.100Z,1.68